createdAt,value
2023-03-12T00:00:23.047Z,100.00
2023-03-12T00:01:29.905Z,100.00
2023-03-12T00:02:32.230Z,100.00
2023-03-12T00:03:33.851Z,100.00
2023-03-12T00:04:35.443Z,100.00
2023-03-12T00:05:38.778Z,100.00
2023-03-12T00:06:40.455Z,100.00
2023-03-12T00:07:42.118Z,100.00
2023-03-12T00:08:43.797Z,100.00
2023-03-12T00:09:45.413Z,100.00
2023-03-12T00:10:46.994Z,100.00
2023-03-12T00:11:48.611Z,100.00
2023-03-12T00:12:50.187Z,100.00
2023-03-12T00:13:53.447Z,100.00
2023-03-12T00:14:55.119Z,100.00
2023-03-12T00:15:56.681Z,100.00
2023-03-12T00:16:58.210Z,100.00
2023-03-12T00:17:59.766Z,100.00
2023-03-12T00:19:01.544Z,100.00
2023-03-12T00:20:05.240Z,100.00
2023-03-12T00:21:07.574Z,100.00
2023-03-12T00:22:09.149Z,100.00
2023-03-12T00:23:10.691Z,100.00
2023-03-12T00:24:12.311Z,100.00
2023-03-12T00:25:15.914Z,100.00
2023-03-12T00:26:18.522Z,100.00
2023-03-12T00:27:20.131Z,100.00
2023-03-12T00:28:21.693Z,100.00
2023-03-12T00:29:23.296Z,100.00
2023-03-12T00:30:24.887Z,100.00
2023-03-12T00:31:29.764Z,100.00
2023-03-12T00:32:34.573Z,100.00
2023-03-12T00:33:36.161Z,100.00
2023-03-12T00:34:37.727Z,100.00
2023-03-12T00:35:39.362Z,100.00
2023-03-12T00:36:40.922Z,100.00
2023-03-12T00:37:42.662Z,100.00
2023-03-12T00:38:44.325Z,100.00
2023-03-12T00:39:46.152Z,100.00
2023-03-12T00:40:47.840Z,100.00
2023-03-12T00:41:49.588Z,100.00
2023-03-12T00:42:51.172Z,100.00
2023-03-12T00:43:53.224Z,100.00
2023-03-12T00:44:54.819Z,100.00
2023-03-12T00:45:56.653Z,100.00
2023-03-12T00:46:58.350Z,100.00
2023-03-12T00:48:00.002Z,100.00
2023-03-12T00:49:01.628Z,100.00
2023-03-12T00:50:04.054Z,100.00
2023-03-12T00:51:05.780Z,100.00
2023-03-12T00:52:07.488Z,100.00
2023-03-12T00:53:09.066Z,100.00
2023-03-12T00:54:11.012Z,100.00
2023-03-12T00:55:12.766Z,100.00
2023-03-12T00:56:14.433Z,100.00
2023-03-12T00:57:16.057Z,100.00
2023-03-12T00:58:17.707Z,100.00
2023-03-12T00:59:19.354Z,100.00
2023-03-12T01:00:21.353Z,100.00
2023-03-12T01:01:22.936Z,100.00
2023-03-12T01:02:24.576Z,100.00
2023-03-12T01:03:26.397Z,100.00
2023-03-12T01:04:27.938Z,100.00
2023-03-12T01:05:29.571Z,100.00
2023-03-12T01:06:31.181Z,100.00
2023-03-12T01:07:33.009Z,100.00
2023-03-12T01:08:35.002Z,100.00
2023-03-12T01:09:36.932Z,100.00
2023-03-12T01:10:42.778Z,100.00
2023-03-12T01:11:44.378Z,100.00
2023-03-12T01:12:46.429Z,100.00
2023-03-12T01:13:48.982Z,100.00
2023-03-12T01:14:50.628Z,100.00
2023-03-12T01:15:52.280Z,100.00
2023-03-12T01:16:53.951Z,100.00
2023-03-12T01:17:55.743Z,100.00
2023-03-12T01:18:58.828Z,100.00
2023-03-12T01:20:00.451Z,100.00
2023-03-12T01:21:03.066Z,100.00
2023-03-12T01:22:04.745Z,100.00
2023-03-12T01:23:06.901Z,100.00
2023-03-12T01:24:08.760Z,100.00
2023-03-12T01:25:12.078Z,100.00
2023-03-12T01:26:13.650Z,100.00
2023-03-12T01:27:15.253Z,100.00
2023-03-12T01:28:16.952Z,100.00
2023-03-12T01:29:18.837Z,100.00
2023-03-12T01:30:20.438Z,100.00
2023-03-12T01:31:22.092Z,100.00
2023-03-12T01:32:23.925Z,100.00
2023-03-12T01:33:25.569Z,100.00
2023-03-12T01:34:27.568Z,100.00
2023-03-12T01:35:29.210Z,100.00
2023-03-12T01:36:31.006Z,100.00
2023-03-12T01:37:33.514Z,100.00
2023-03-12T01:38:35.186Z,100.00
2023-03-12T01:39:37.336Z,100.00
2023-03-12T01:40:39.267Z,100.00
2023-03-12T01:41:41.169Z,100.00
2023-03-12T01:42:42.791Z,100.00
2023-03-12T01:43:45.546Z,100.00
2023-03-12T01:45:02.115Z,100.00
2023-03-12T01:46:30.795Z,100.00
2023-03-12T01:47:32.705Z,100.00
2023-03-12T01:48:53.829Z,100.00
2023-03-12T01:49:56.094Z,100.00
2023-03-12T01:50:59.704Z,100.00
2023-03-12T01:52:12.914Z,100.00
2023-03-12T01:53:24.624Z,100.00
2023-03-12T01:54:40.860Z,100.00
2023-03-12T01:55:43.247Z,100.00
2023-03-12T01:56:46.552Z,100.00
2023-03-12T01:57:55.076Z,100.00
2023-03-12T01:59:00.589Z,100.00
2023-03-12T02:00:09.219Z,100.00
2023-03-12T02:01:19.028Z,100.00
2023-03-12T02:02:21.449Z,100.00
2023-03-12T02:03:23.242Z,100.00
2023-03-12T02:04:27.344Z,100.00
2023-03-12T02:05:38.564Z,100.00
2023-03-12T02:06:48.956Z,100.00
2023-03-12T02:07:50.710Z,100.00
2023-03-12T02:08:52.890Z,100.00
2023-03-12T02:09:54.530Z,100.00
2023-03-12T02:10:56.122Z,100.00
2023-03-12T02:11:57.718Z,100.00
2023-03-12T02:13:00.103Z,100.00
2023-03-12T02:14:02.147Z,100.00
2023-03-12T02:15:04.997Z,100.00
2023-03-12T02:16:06.709Z,100.00
2023-03-12T02:17:09.072Z,100.00
2023-03-12T02:18:16.329Z,100.00
2023-03-12T02:19:59.977Z,100.00
2023-03-12T02:21:14.146Z,100.00
2023-03-12T02:22:16.279Z,100.00
2023-03-12T02:23:42.226Z,100.00
2023-03-12T02:24:51.935Z,100.00
2023-03-12T02:25:55.218Z,100.00
2023-03-12T02:26:57.427Z,100.00
2023-03-12T02:28:01.308Z,100.00
2023-03-12T02:29:03.932Z,100.00
2023-03-12T02:30:06.238Z,100.00
2023-03-12T02:31:08.728Z,100.00
2023-03-12T02:32:20.092Z,100.00
2023-03-12T02:33:21.876Z,100.00
2023-03-12T02:34:23.516Z,100.00
2023-03-12T02:35:25.397Z,100.00
2023-03-12T02:36:27.693Z,100.00
2023-03-12T02:37:29.272Z,100.00
2023-03-12T02:38:39.032Z,100.00
2023-03-12T02:39:42.553Z,100.00
2023-03-12T02:40:47.492Z,100.00
2023-03-12T02:41:51.970Z,100.00
2023-03-12T02:42:55.503Z,100.00
2023-03-12T02:44:02.539Z,100.00
2023-03-12T02:45:05.068Z,100.00
2023-03-12T02:46:07.878Z,100.00
2023-03-12T02:47:09.749Z,100.00
2023-03-12T02:48:11.371Z,100.00
2023-03-12T02:49:14.082Z,100.00
2023-03-12T02:50:16.404Z,100.00
2023-03-12T02:51:17.998Z,100.00
2023-03-12T02:52:19.977Z,100.00
2023-03-12T02:53:21.559Z,100.00
2023-03-12T02:54:24.381Z,100.00
2023-03-12T02:55:26.043Z,100.00
2023-03-12T02:56:28.731Z,100.00
2023-03-12T02:57:30.521Z,100.00
2023-03-12T02:58:32.274Z,100.00
2023-03-12T02:59:33.858Z,100.00
2023-03-12T03:00:36.078Z,100.00
2023-03-12T03:01:38.055Z,100.00
2023-03-12T03:02:41.212Z,100.00
2023-03-12T03:03:42.887Z,100.00
2023-03-12T03:04:44.502Z,100.00
2023-03-12T03:05:46.136Z,100.00
2023-03-12T03:06:47.744Z,100.00
2023-03-12T03:07:49.390Z,100.00
2023-03-12T03:08:51.591Z,100.00
2023-03-12T03:09:53.152Z,100.00
2023-03-12T03:10:54.716Z,100.00
2023-03-12T03:11:56.323Z,100.00
2023-03-12T03:12:59.713Z,100.00
2023-03-12T03:14:01.388Z,100.00
2023-03-12T03:15:04.484Z,100.00
2023-03-12T03:16:06.404Z,100.00
2023-03-12T03:17:08.178Z,100.00
2023-03-12T03:18:09.767Z,100.00
2023-03-12T03:19:11.539Z,100.00
2023-03-12T03:20:13.263Z,100.00
2023-03-12T03:21:16.084Z,100.00
2023-03-12T03:22:19.740Z,100.00
2023-03-12T03:23:22.019Z,100.00
2023-03-12T03:24:23.597Z,100.00
2023-03-12T03:25:25.236Z,100.00
2023-03-12T03:26:27.218Z,100.00
2023-03-12T03:27:29.029Z,100.00
2023-03-12T03:28:30.959Z,100.00
2023-03-12T03:29:32.848Z,100.00
2023-03-12T03:30:35.874Z,100.00
2023-03-12T03:31:39.562Z,100.00
2023-03-12T03:32:41.171Z,100.00
2023-03-12T03:33:44.587Z,100.00
2023-03-12T03:34:47.930Z,100.00
2023-03-12T03:35:50.816Z,100.00
2023-03-12T03:36:52.637Z,100.00
2023-03-12T03:37:54.372Z,100.00
2023-03-12T03:38:55.939Z,100.00
2023-03-12T03:39:58.486Z,100.00
2023-03-12T03:41:00.818Z,100.00
2023-03-12T03:42:03.062Z,100.00
2023-03-12T03:43:07.476Z,100.00
2023-03-12T03:44:09.964Z,100.00
2023-03-12T03:45:12.957Z,100.00
2023-03-12T03:46:16.790Z,100.00
2023-03-12T03:47:22.613Z,100.00
2023-03-12T03:48:24.329Z,100.00
2023-03-12T03:49:26.021Z,100.00
2023-03-12T03:50:27.598Z,100.00
2023-03-12T03:51:29.236Z,100.00
2023-03-12T03:52:34.949Z,100.00
2023-03-12T03:53:36.776Z,100.00
2023-03-12T03:54:38.464Z,100.00
2023-03-12T03:55:41.845Z,100.00
2023-03-12T03:56:44.481Z,100.00
2023-03-12T03:57:46.187Z,100.00
2023-03-12T03:58:47.842Z,100.00
2023-03-12T03:59:51.215Z,100.00
2023-03-12T04:00:54.341Z,100.00
2023-03-12T04:01:55.993Z,100.00
2023-03-12T04:02:57.957Z,100.00
2023-03-12T04:04:00.401Z,100.00
2023-03-12T04:05:03.038Z,100.00
2023-03-12T04:06:06.210Z,100.00
2023-03-12T04:07:08.862Z,100.00
2023-03-12T04:08:13.289Z,100.00
2023-03-12T04:09:14.915Z,100.00
2023-03-12T04:10:16.749Z,100.00
2023-03-12T04:11:21.340Z,100.00
2023-03-12T04:12:23.345Z,100.00
2023-03-12T04:13:24.972Z,100.00
2023-03-12T04:14:26.582Z,100.00
2023-03-12T04:15:28.220Z,100.00
2023-03-12T04:16:29.850Z,100.00
2023-03-12T04:17:32.617Z,100.00
2023-03-12T04:18:34.617Z,100.00
2023-03-12T04:19:36.231Z,100.00
2023-03-12T04:20:39.951Z,100.00
2023-03-12T04:21:43.052Z,100.00
2023-03-12T04:22:44.871Z,100.00
2023-03-12T04:23:46.530Z,100.00
2023-03-12T04:24:48.929Z,100.00
2023-03-12T04:25:50.652Z,100.00
2023-03-12T04:26:52.410Z,100.00
2023-03-12T04:27:54.100Z,100.00
2023-03-12T04:28:55.892Z,100.00
2023-03-12T04:29:57.789Z,100.00
2023-03-12T04:31:01.475Z,100.00
2023-03-12T04:32:08.471Z,100.00
2023-03-12T04:33:11.104Z,100.00
2023-03-12T04:34:14.464Z,100.00
2023-03-12T04:35:17.160Z,100.00
2023-03-12T04:36:18.791Z,100.00
2023-03-12T04:37:22.893Z,100.00
2023-03-12T04:38:25.907Z,100.00
2023-03-12T04:39:28.142Z,100.00
2023-03-12T04:40:29.907Z,100.00
2023-03-12T04:41:31.509Z,100.00
2023-03-12T04:42:39.409Z,100.00
2023-03-12T04:43:41.793Z,100.00
2023-03-12T04:44:43.719Z,100.00
2023-03-12T04:45:45.338Z,100.00
2023-03-12T04:46:47.194Z,100.00
2023-03-12T04:47:52.155Z,100.00
2023-03-12T04:48:54.014Z,100.00
2023-03-12T04:49:55.617Z,100.00
2023-03-12T04:50:57.529Z,100.00
2023-03-12T04:51:59.150Z,100.00
2023-03-12T04:53:00.798Z,100.00
2023-03-12T04:54:03.041Z,100.00
2023-03-12T04:55:06.139Z,100.00
2023-03-12T04:56:08.283Z,100.00
2023-03-12T04:57:10.541Z,100.00
2023-03-12T04:58:12.150Z,100.00
2023-03-12T04:59:14.229Z,100.00
2023-03-12T05:00:17.261Z,100.00
2023-03-12T05:01:24.245Z,100.00
2023-03-12T05:02:26.102Z,100.00
2023-03-12T05:03:28.289Z,100.00
2023-03-12T05:04:33.567Z,100.00
2023-03-12T05:05:35.416Z,100.00
2023-03-12T05:06:37.839Z,100.00
2023-03-12T05:07:39.754Z,100.00
2023-03-12T05:08:41.489Z,100.00
2023-03-12T05:09:43.042Z,100.00
2023-03-12T05:10:45.350Z,100.00
2023-03-12T05:11:49.082Z,100.00
2023-03-12T05:12:53.404Z,100.00
2023-03-12T05:13:55.850Z,100.00
2023-03-12T05:14:58.269Z,100.00
2023-03-12T05:16:01.463Z,100.00
2023-03-12T05:17:03.307Z,100.00
2023-03-12T05:18:05.002Z,100.00
2023-03-12T05:19:06.711Z,100.00
2023-03-12T05:20:09.070Z,100.00
2023-03-12T05:21:19.347Z,100.00
2023-03-12T05:22:21.443Z,100.00
2023-03-12T05:23:23.228Z,100.00
2023-03-12T05:24:25.088Z,100.00
2023-03-12T05:25:26.707Z,100.00
2023-03-12T05:26:31.290Z,100.00
2023-03-12T05:27:39.498Z,100.00
2023-03-12T05:28:41.323Z,100.00
2023-03-12T05:29:43.004Z,100.00
2023-03-12T05:30:44.648Z,100.00
2023-03-12T05:31:46.244Z,100.00
2023-03-12T05:32:47.969Z,100.00
2023-03-12T05:33:52.558Z,100.00
2023-03-12T05:34:54.549Z,100.00
2023-03-12T05:35:56.261Z,100.00
2023-03-12T05:36:58.520Z,100.00
2023-03-12T05:38:01.491Z,100.00
2023-03-12T05:39:03.886Z,100.00
2023-03-12T05:40:09.695Z,100.00
2023-03-12T05:41:20.726Z,100.00
2023-03-12T05:42:24.761Z,100.00
2023-03-12T05:43:27.813Z,100.00
2023-03-12T05:44:30.187Z,100.00
2023-03-12T05:45:33.134Z,100.00
2023-03-12T05:46:34.825Z,100.00
2023-03-12T05:47:36.658Z,100.00
2023-03-12T05:48:38.419Z,100.00
2023-03-12T05:49:40.048Z,100.00
2023-03-12T05:50:42.456Z,100.00
2023-03-12T05:51:44.304Z,100.00
2023-03-12T05:52:46.129Z,100.00
2023-03-12T05:53:48.082Z,100.00
2023-03-12T05:54:49.647Z,100.00
2023-03-12T05:55:51.332Z,100.00
2023-03-12T05:56:53.024Z,100.00
2023-03-12T05:57:56.551Z,100.00
2023-03-12T05:58:59.115Z,100.00
2023-03-12T06:00:00.909Z,100.00
2023-03-12T06:01:02.741Z,100.00
2023-03-12T06:02:05.570Z,100.00
2023-03-12T06:03:08.720Z,100.00
2023-03-12T06:04:10.336Z,100.00
2023-03-12T06:05:12.676Z,100.00
2023-03-12T06:06:15.295Z,99.66
2023-03-12T06:07:17.121Z,99.23
2023-03-12T06:08:19.162Z,98.41
2023-03-12T06:09:20.813Z,98.95
2023-03-12T06:10:22.391Z,98.90
2023-03-12T06:11:24.024Z,98.95
2023-03-12T06:12:25.689Z,99.31
2023-03-12T06:13:27.296Z,99.32
2023-03-12T06:14:30.720Z,98.24
2023-03-12T06:15:32.830Z,98.18
2023-03-12T06:16:35.140Z,98.42
2023-03-12T06:17:37.082Z,97.55
2023-03-12T06:18:38.674Z,98.04
2023-03-12T06:19:40.263Z,97.34
2023-03-12T06:20:42.493Z,97.85
2023-03-12T06:21:44.364Z,98.81
2023-03-12T06:22:46.567Z,98.65
2023-03-12T06:23:49.045Z,98.85
2023-03-12T06:24:55.486Z,98.06
2023-03-12T06:25:57.150Z,97.61
2023-03-12T06:26:58.751Z,97.66
2023-03-12T06:28:00.320Z,98.91
2023-03-12T06:29:01.855Z,98.45
2023-03-12T06:30:04.476Z,99.05
2023-03-12T06:31:07.371Z,99.37
2023-03-12T06:32:09.204Z,99.46
2023-03-12T06:33:10.794Z,98.59
2023-03-12T06:34:12.369Z,98.35
2023-03-12T06:35:13.972Z,97.34
2023-03-12T06:36:15.803Z,96.89
2023-03-12T06:37:17.454Z,97.65
2023-03-12T06:38:19.055Z,97.33
2023-03-12T06:39:20.606Z,97.86
2023-03-12T06:40:22.179Z,97.75
2023-03-12T06:41:23.901Z,97.24
2023-03-12T06:42:25.468Z,98.33
2023-03-12T06:43:29.587Z,98.03
2023-03-12T06:44:31.698Z,96.80
2023-03-12T06:45:33.285Z,96.40
2023-03-12T06:46:36.161Z,97.20
2023-03-12T06:47:37.790Z,97.68
2023-03-12T06:48:39.438Z,96.60
2023-03-12T06:49:41.086Z,96.98
2023-03-12T06:50:43.262Z,97.43
2023-03-12T06:51:44.842Z,97.53
2023-03-12T06:52:46.443Z,96.73
2023-03-12T06:53:48.022Z,96.55
2023-03-12T06:54:49.588Z,95.99
2023-03-12T06:55:51.530Z,97.13
2023-03-12T06:56:53.142Z,96.01
2023-03-12T06:57:54.968Z,94.94
2023-03-12T06:58:56.959Z,94.04
2023-03-12T06:59:58.520Z,94.43
2023-03-12T07:01:00.164Z,94.47
2023-03-12T07:02:01.880Z,93.20
2023-03-12T07:03:04.000Z,93.53
2023-03-12T07:04:05.537Z,94.72
2023-03-12T07:05:08.037Z,93.73
2023-03-12T07:06:15.481Z,92.67
2023-03-12T07:07:17.069Z,92.46
2023-03-12T07:08:19.077Z,93.16
2023-03-12T07:09:20.910Z,91.62
2023-03-12T07:10:22.920Z,91.45
2023-03-12T07:11:24.578Z,91.17
2023-03-12T07:12:26.337Z,89.96
2023-03-12T07:13:28.350Z,89.47
2023-03-12T07:14:29.895Z,89.36
2023-03-12T07:15:31.478Z,88.26
2023-03-12T07:16:33.153Z,88.74
2023-03-12T07:17:34.724Z,87.02
2023-03-12T07:18:36.518Z,87.25
2023-03-12T07:19:38.072Z,87.94
2023-03-12T07:20:41.896Z,86.34
2023-03-12T07:21:43.454Z,85.28
2023-03-12T07:22:45.021Z,84.03
2023-03-12T07:23:46.603Z,83.77
2023-03-12T07:24:48.182Z,81.86
2023-03-12T07:25:50.745Z,81.72
2023-03-12T07:26:52.297Z,82.04
2023-03-12T07:27:53.888Z,80.60
2023-03-12T07:28:55.460Z,79.49
2023-03-12T07:29:57.004Z,79.76
2023-03-12T07:31:05.084Z,79.82
2023-03-12T07:32:06.696Z,80.22
2023-03-12T07:33:12.500Z,78.36
2023-03-12T07:34:14.328Z,78.14
2023-03-12T07:35:15.959Z,78.93
2023-03-12T07:36:17.701Z,78.85
2023-03-12T07:37:19.510Z,77.87
2023-03-12T07:38:21.220Z,77.75
2023-03-12T07:39:22.933Z,76.43
2023-03-12T07:40:25.017Z,77.46
2023-03-12T07:41:28.969Z,78.42
2023-03-12T07:42:31.448Z,73.48
2023-03-12T07:43:33.233Z,72.30
2023-03-12T07:44:34.943Z,71.85
2023-03-12T07:45:40.422Z,71.18
2023-03-12T07:46:42.120Z,70.27
2023-03-12T07:47:44.651Z,70.69
2023-03-12T07:48:47.390Z,72.45
2023-03-12T07:49:49.605Z,73.72
2023-03-12T07:50:51.307Z,75.10
2023-03-12T07:51:53.114Z,76.22
2023-03-12T07:52:54.799Z,76.90
2023-03-12T07:53:56.769Z,75.74
2023-03-12T07:54:58.469Z,72.45
2023-03-12T07:56:00.334Z,72.09
2023-03-12T07:57:02.327Z,73.60
2023-03-12T07:58:04.638Z,75.24
2023-03-12T07:59:09.596Z,71.91
2023-03-12T08:00:12.166Z,71.42
2023-03-12T08:01:13.884Z,71.94
2023-03-12T08:02:15.544Z,71.04
2023-03-12T08:03:17.331Z,71.98
2023-03-12T08:04:19.240Z,71.32
2023-03-12T08:05:20.925Z,73.30
2023-03-12T08:06:22.493Z,72.92
2023-03-12T08:07:24.046Z,72.49
2023-03-12T08:08:26.188Z,73.70
2023-03-12T08:09:27.757Z,73.88
2023-03-12T08:10:29.531Z,72.72
2023-03-12T08:11:35.402Z,75.53
2023-03-12T08:12:37.518Z,74.66
2023-03-12T08:13:39.248Z,76.10
2023-03-12T08:14:41.043Z,77.74
2023-03-12T08:15:43.694Z,78.58
2023-03-12T08:16:45.365Z,78.51
2023-03-12T08:17:47.152Z,78.67
2023-03-12T08:18:48.735Z,77.36
2023-03-12T08:19:50.331Z,76.85
2023-03-12T08:20:53.437Z,74.09
2023-03-12T08:21:55.169Z,74.57
2023-03-12T08:22:56.708Z,75.05
2023-03-12T08:23:58.258Z,74.33
2023-03-12T08:25:00.004Z,71.54
2023-03-12T08:26:01.662Z,71.21
2023-03-12T08:27:03.385Z,74.45
2023-03-12T08:28:05.288Z,73.52
2023-03-12T08:29:06.864Z,73.35
2023-03-12T08:30:09.218Z,75.03
2023-03-12T08:31:10.998Z,74.88
2023-03-12T08:32:12.688Z,74.20
2023-03-12T08:33:14.431Z,70.78
2023-03-12T08:34:15.978Z,74.10
2023-03-12T08:35:17.859Z,72.66
2023-03-12T08:36:21.934Z,73.75
2023-03-12T08:37:23.874Z,74.85
2023-03-12T08:38:25.520Z,72.60
2023-03-12T08:39:27.161Z,71.33
2023-03-12T08:40:28.821Z,72.51
2023-03-12T08:41:30.436Z,74.37
2023-03-12T08:42:32.000Z,73.54
2023-03-12T08:43:33.643Z,72.81
2023-03-12T08:44:35.232Z,73.38
2023-03-12T08:45:37.736Z,73.57
2023-03-12T08:46:39.290Z,72.97
2023-03-12T08:47:40.865Z,71.54
2023-03-12T08:48:42.453Z,72.30
2023-03-12T08:49:44.014Z,72.39
2023-03-12T08:50:45.583Z,72.16
2023-03-12T08:51:47.640Z,71.10
2023-03-12T08:52:49.405Z,68.88
2023-03-12T08:53:50.949Z,67.41
2023-03-12T08:54:52.492Z,67.84
2023-03-12T08:55:55.139Z,68.41
2023-03-12T08:56:56.728Z,68.73
2023-03-12T08:57:58.295Z,70.08
2023-03-12T08:58:59.851Z,69.26
2023-03-12T09:00:01.509Z,67.98
2023-03-12T09:01:08.667Z,67.86
2023-03-12T09:02:13.405Z,67.84
2023-03-12T09:03:15.082Z,66.92
2023-03-12T09:04:16.810Z,67.52
2023-03-12T09:05:18.534Z,67.70
2023-03-12T09:06:20.081Z,67.85
2023-03-12T09:07:21.761Z,68.90
2023-03-12T09:08:23.281Z,67.87
2023-03-12T09:09:24.838Z,67.12
2023-03-12T09:10:28.283Z,66.60
2023-03-12T09:11:33.586Z,66.90
2023-03-12T09:12:35.170Z,67.42
2023-03-12T09:13:58.753Z,67.21
2023-03-12T09:15:03.573Z,66.95
2023-03-12T09:16:07.207Z,70.34
2023-03-12T09:17:08.911Z,68.57
2023-03-12T09:18:10.570Z,70.29
2023-03-12T09:19:12.537Z,71.13
2023-03-12T09:20:14.322Z,68.27
2023-03-12T09:21:15.990Z,68.43
2023-03-12T09:22:17.651Z,67.76
2023-03-12T09:23:19.284Z,67.94
2023-03-12T09:24:21.056Z,68.50
2023-03-12T09:25:22.769Z,67.30
2023-03-12T09:26:24.502Z,67.08
2023-03-12T09:27:26.101Z,66.74
2023-03-12T09:28:27.707Z,66.53
2023-03-12T09:29:29.338Z,65.60
2023-03-12T09:30:30.898Z,65.92
2023-03-12T09:31:32.708Z,65.74
2023-03-12T09:32:34.567Z,65.38
2023-03-12T09:33:36.512Z,65.20
2023-03-12T09:34:38.135Z,65.47
2023-03-12T09:35:39.724Z,65.41
2023-03-12T09:36:41.330Z,64.77
2023-03-12T09:37:43.355Z,65.02
2023-03-12T09:38:44.937Z,65.39
2023-03-12T09:39:49.226Z,63.83
2023-03-12T09:40:50.932Z,62.51
2023-03-12T09:41:52.765Z,62.62
2023-03-12T09:43:11.220Z,64.40
2023-03-12T09:44:18.592Z,64.36
2023-03-12T09:45:26.838Z,63.14
2023-03-12T09:46:38.808Z,62.68
2023-03-12T09:47:53.294Z,62.37
2023-03-12T09:48:57.932Z,62.23
2023-03-12T09:50:05.652Z,62.15
2023-03-12T09:51:36.094Z,62.27
2023-03-12T09:52:50.902Z,60.62
2023-03-12T09:54:00.284Z,60.68
2023-03-12T09:55:13.982Z,61.18
2023-03-12T09:56:19.023Z,61.31
2023-03-12T09:57:24.927Z,61.23
2023-03-12T09:58:35.101Z,61.19
2023-03-12T09:59:36.730Z,60.80
2023-03-12T10:00:38.316Z,59.62
2023-03-12T10:02:02.500Z,59.53
2023-03-12T10:03:33.256Z,60.36
2023-03-12T10:04:58.876Z,60.99
2023-03-12T10:06:27.250Z,59.60
2023-03-12T10:07:42.889Z,59.36
2023-03-12T10:09:01.551Z,59.70
2023-03-12T10:10:29.230Z,58.54
2023-03-12T10:11:48.682Z,58.96
2023-03-12T10:13:08.249Z,58.73
2023-03-12T10:14:27.337Z,58.99
2023-03-12T10:15:42.238Z,60.44
2023-03-12T10:17:12.869Z,59.88
2023-03-12T10:18:48.173Z,58.42
2023-03-12T10:20:13.444Z,58.50
2023-03-12T10:21:25.203Z,58.20
2023-03-12T10:22:29.664Z,58.00
2023-03-12T10:24:00.255Z,57.23
2023-03-12T10:25:04.929Z,58.40
2023-03-12T10:26:35.695Z,56.11
2023-03-12T10:27:43.368Z,55.56
2023-03-12T10:28:49.367Z,55.01
2023-03-12T10:29:53.409Z,55.41
2023-03-12T10:30:59.027Z,55.04
2023-03-12T10:32:07.518Z,55.16
2023-03-12T10:33:15.754Z,54.96
2023-03-12T10:34:34.468Z,54.72
2023-03-12T10:35:36.471Z,55.45
2023-03-12T10:36:40.166Z,56.36
2023-03-12T10:37:49.900Z,56.44
2023-03-12T10:38:51.663Z,57.53
2023-03-12T10:39:55.566Z,57.92
2023-03-12T10:40:57.139Z,55.67
2023-03-12T10:42:00.737Z,55.26
2023-03-12T10:43:04.729Z,55.79
2023-03-12T10:44:09.437Z,54.55
2023-03-12T10:45:23.737Z,55.02
2023-03-12T10:46:38.628Z,55.74
2023-03-12T10:47:42.709Z,56.42
2023-03-12T10:48:44.326Z,57.38
2023-03-12T10:49:45.888Z,56.52
2023-03-12T10:51:04.550Z,56.32
2023-03-12T10:52:20.956Z,56.74
2023-03-12T10:53:29.749Z,56.29
2023-03-12T10:54:39.344Z,56.80
2023-03-12T10:55:41.603Z,55.82
2023-03-12T10:56:51.138Z,55.69
2023-03-12T10:57:53.595Z,55.51
2023-03-12T10:58:55.151Z,55.99
2023-03-12T11:00:06.891Z,56.96
2023-03-12T11:01:31.339Z,57.09
2023-03-12T11:02:41.930Z,55.72
2023-03-12T11:03:44.777Z,57.50
2023-03-12T11:04:51.608Z,57.38
2023-03-12T11:05:56.065Z,57.06
2023-03-12T11:07:23.206Z,57.93
2023-03-12T11:08:27.751Z,57.71
2023-03-12T11:09:29.389Z,57.10
2023-03-12T11:10:45.969Z,57.25
2023-03-12T11:11:49.751Z,57.30
2023-03-12T11:13:01.929Z,59.07
2023-03-12T11:14:15.777Z,58.99
2023-03-12T11:15:26.338Z,59.43
2023-03-12T11:16:30.693Z,60.24
2023-03-12T11:17:33.574Z,59.27
2023-03-12T11:18:37.677Z,60.10
2023-03-12T11:19:43.354Z,60.94
2023-03-12T11:20:45.026Z,60.74
2023-03-12T11:21:57.984Z,58.79
2023-03-12T11:23:13.879Z,57.43
2023-03-12T11:24:15.957Z,59.41
2023-03-12T11:25:23.037Z,60.02
2023-03-12T11:26:31.425Z,57.71
2023-03-12T11:27:49.917Z,59.67
2023-03-12T11:29:18.848Z,55.85
2023-03-12T11:30:35.230Z,59.40
2023-03-12T11:31:51.979Z,57.68
2023-03-12T11:32:54.000Z,57.53
2023-03-12T11:34:07.250Z,58.80
2023-03-12T11:35:14.306Z,56.98
2023-03-12T11:36:35.563Z,56.41
2023-03-12T11:37:42.181Z,55.69
2023-03-12T11:38:57.999Z,55.17
2023-03-12T11:40:29.673Z,54.07
2023-03-12T11:41:59.008Z,55.50
2023-03-12T11:43:43.558Z,55.24
2023-03-12T11:45:05.889Z,55.38
2023-03-12T11:46:25.572Z,55.21
2023-03-12T11:47:39.591Z,54.81
2023-03-12T11:49:06.550Z,54.71
2023-03-12T11:50:13.704Z,53.89
2023-03-12T11:51:53.079Z,53.03
2023-03-12T11:53:14.195Z,53.39
2023-03-12T11:54:46.143Z,53.63
2023-03-12T11:55:53.847Z,54.08
2023-03-12T11:56:59.117Z,53.09
2023-03-12T11:58:06.504Z,51.80
2023-03-12T11:59:14.152Z,51.69
2023-03-12T12:00:21.158Z,52.06
2023-03-12T12:01:41.099Z,52.88
2023-03-12T12:03:20.188Z,52.31
2023-03-12T12:04:36.815Z,51.73
2023-03-12T12:05:56.992Z,52.81
2023-03-12T12:07:36.719Z,54.67
2023-03-12T12:09:05.822Z,54.54
2023-03-12T12:10:44.386Z,56.04
2023-03-12T12:12:08.506Z,55.05
2023-03-12T12:13:29.690Z,53.82
2023-03-12T12:15:04.818Z,54.18
2023-03-12T12:16:43.915Z,55.77
2023-03-12T12:17:59.774Z,55.84
2023-03-12T12:19:10.413Z,55.56
2023-03-12T12:20:24.400Z,55.51
2023-03-12T12:21:44.214Z,54.19
2023-03-12T12:23:22.474Z,53.07
2023-03-12T12:24:46.027Z,53.38
2023-03-12T12:26:08.634Z,53.15
2023-03-12T12:27:29.013Z,54.89
2023-03-12T12:28:44.445Z,53.79
2023-03-12T12:30:07.194Z,53.00
2023-03-12T12:31:18.401Z,52.43
2023-03-12T12:32:35.278Z,53.24
2023-03-12T12:34:01.957Z,54.89
2023-03-12T12:35:06.469Z,54.28
2023-03-12T12:36:13.575Z,54.24
2023-03-12T12:37:20.495Z,54.50
2023-03-12T12:38:42.235Z,55.44
2023-03-12T12:40:14.735Z,56.79
2023-03-12T12:41:26.639Z,58.88
2023-03-12T12:42:33.538Z,60.53
2023-03-12T12:44:01.299Z,59.94
2023-03-12T12:45:05.506Z,62.82
2023-03-12T12:46:12.980Z,63.75
2023-03-12T12:47:21.038Z,61.79
2023-03-12T12:48:31.064Z,63.90
2023-03-12T12:49:51.931Z,63.99
2023-03-12T12:50:54.491Z,65.61
2023-03-12T12:52:04.863Z,66.46
2023-03-12T12:53:13.833Z,67.29
2023-03-12T12:54:37.518Z,65.60
2023-03-12T12:55:51.095Z,67.58
2023-03-12T12:57:09.013Z,63.80
2023-03-12T12:58:17.361Z,62.98
2023-03-12T12:59:29.345Z,65.04
2023-03-12T13:00:43.486Z,65.03
2023-03-12T13:01:45.287Z,62.91
2023-03-12T13:02:47.887Z,64.97
2023-03-12T13:03:50.104Z,64.39
2023-03-12T13:04:56.882Z,65.85
2023-03-12T13:06:03.669Z,64.08
2023-03-12T13:07:14.204Z,66.00
2023-03-12T13:08:40.580Z,66.30
2023-03-12T13:09:53.595Z,65.89
2023-03-12T13:11:02.473Z,63.95
2023-03-12T13:12:14.430Z,58.29
2023-03-12T13:13:21.521Z,58.78
2023-03-12T13:14:36.638Z,61.33
2023-03-12T13:15:41.083Z,63.61
2023-03-12T13:16:45.098Z,60.68
2023-03-12T13:17:52.510Z,61.73
2023-03-12T13:19:00.275Z,60.86
2023-03-12T13:20:16.317Z,59.98
2023-03-12T13:21:25.518Z,61.43
2023-03-12T13:22:41.581Z,60.90
2023-03-12T13:23:59.809Z,61.93
2023-03-12T13:25:45.731Z,62.34
2023-03-12T13:26:58.994Z,61.45
2023-03-12T13:28:22.295Z,60.23
2023-03-12T13:29:44.720Z,62.22
2023-03-12T13:30:48.664Z,61.58
2023-03-12T13:31:50.311Z,61.75
2023-03-12T13:32:57.612Z,60.52
2023-03-12T13:34:28.312Z,61.04
2023-03-12T13:35:38.520Z,60.45
2023-03-12T13:36:40.151Z,61.76
2023-03-12T13:38:00.534Z,65.96
2023-03-12T13:39:07.994Z,65.33
2023-03-12T13:40:35.716Z,64.66
2023-03-12T13:41:54.956Z,63.32
2023-03-12T13:43:30.603Z,63.43
2023-03-12T13:44:41.325Z,62.11
2023-03-12T13:45:58.362Z,62.39
2023-03-12T13:46:59.918Z,63.93
2023-03-12T13:48:03.147Z,64.15
2023-03-12T13:49:11.758Z,65.71
2023-03-12T13:50:16.948Z,64.21
2023-03-12T13:51:21.641Z,62.08
2023-03-12T13:52:23.246Z,62.24
2023-03-12T13:53:40.319Z,61.11
2023-03-12T13:54:45.602Z,59.74